sensor_id;sensor_type;location;lat;lon;timestamp;pressure;altitude;pressure_sealevel;temperature;humidity
36248;BME280;22287;50.824;5.644;2023-03-23T00:00:59;99615.53;;;12.51;75.70
36248;BME280;22287;50.824;5.644;2023-03-23T00:03:26;99608.75;;;12.30;76.51
36248;BME280;22287;50.824;5.644;2023-03-23T00:06:00;99619.91;;;12.35;76.03
36248;BME280;22287;50.824;5.644;2023-03-23T00:08:28;99612.97;;;12.41;76.10
36248;BME280;22287;50.824;5.644;2023-03-23T00:10:54;99612.97;;;12.49;75.57
36248;BME280;22287;50.824;5.644;2023-03-23T00:13:25;99617.06;;;12.53;76.11
36248;BME280;22287;50.824;5.644;2023-03-23T00:15:51;99605.00;;;12.64;75.69
36248;BME280;22287;50.824;5.644;2023-03-23T00:18:19;99615.16;;;12.46;76.46
36248;BME280;22287;50.824;5.644;2023-03-23T00:20:56;99615.00;;;12.39;75.97
36248;BME280;22287;50.824;5.644;2023-03-23T00:23:24;99594.53;;;12.45;76.34
36248;BME280;22287;50.824;5.644;2023-03-23T00:25:52;99605.16;;;12.62;75.69
36248;BME280;22287;50.824;5.644;2023-03-23T00:28:26;99604.78;;;13.06;74.00
36248;BME280;22287;50.824;5.644;2023-03-23T00:31:00;99605.75;;;13.29;72.68
36248;BME280;22287;50.824;5.644;2023-03-23T00:33:28;99598.75;;;12.55;75.73
36248;BME280;22287;50.824;5.644;2023-03-23T00:35:55;99600.09;;;12.67;75.42
36248;BME280;22287;50.824;5.644;2023-03-23T00:38:22;99589.72;;;12.95;74.43
36248;BME280;22287;50.824;5.644;2023-03-23T00:40:48;99576.66;;;12.90;74.01
36248;BME280;22287;50.824;5.644;2023-03-23T00:43:16;99589.03;;;12.85;74.40
36248;BME280;22287;50.824;5.644;2023-03-23T00:45:43;99603.28;;;12.87;74.62
36248;BME280;22287;50.824;5.644;2023-03-23T00:48:19;99607.56;;;12.57;76.28
36248;BME280;22287;50.824;5.644;2023-03-23T00:50:45;99613.66;;;12.51;76.80
36248;BME280;22287;50.824;5.644;2023-03-23T00:53:11;99627.22;;;12.67;75.83
36248;BME280;22287;50.824;5.644;2023-03-23T00:55:37;99623.81;;;12.49;77.02
36248;BME280;22287;50.824;5.644;2023-03-23T00:58:03;99615.34;;;12.36;77.17
36248;BME280;22287;50.824;5.644;2023-03-23T01:00:28;99607.84;;;12.94;75.58
36248;BME280;22287;50.824;5.644;2023-03-23T01:02:56;99587.25;;;12.45;76.92
36248;BME280;22287;50.824;5.644;2023-03-23T01:05:23;99588.91;;;12.70;75.52
36248;BME280;22287;50.824;5.644;2023-03-23T01:07:50;99584.94;;;13.13;74.34
36248;BME280;22287;50.824;5.644;2023-03-23T01:10:16;99554.47;;;12.79;75.35
36248;BME280;22287;50.824;5.644;2023-03-23T01:12:45;99554.47;;;12.87;75.22
36248;BME280;22287;50.824;5.644;2023-03-23T01:15:16;99566.03;;;12.73;75.03
36248;BME280;22287;50.824;5.644;2023-03-23T01:17:43;99584.19;;;12.56;75.73
36248;BME280;22287;50.824;5.644;2023-03-23T01:20:10;99571.00;;;12.37;77.28
36248;BME280;22287;50.824;5.644;2023-03-23T01:22:37;99555.41;;;12.39;76.97
36248;BME280;22287;50.824;5.644;2023-03-23T01:25:04;99569.28;;;12.44;77.20
36248;BME280;22287;50.824;5.644;2023-03-23T01:27:30;99564.53;;;12.54;76.56
36248;BME280;22287;50.824;5.644;2023-03-23T01:29:55;99551.09;;;12.85;75.10
36248;BME280;22287;50.824;5.644;2023-03-23T01:32:21;99552.38;;;12.42;76.75
36248;BME280;22287;50.824;5.644;2023-03-23T01:34:47;99567.19;;;12.86;75.56
36248;BME280;22287;50.824;5.644;2023-03-23T01:37:13;99578.06;;;12.78;75.48
36248;BME280;22287;50.824;5.644;2023-03-23T01:39:39;99564.41;;;13.19;73.98
36248;BME280;22287;50.824;5.644;2023-03-23T01:42:08;99544.41;;;12.32;77.01
36248;BME280;22287;50.824;5.644;2023-03-23T01:47:04;99565.22;;;12.56;76.27
36248;BME280;22287;50.824;5.644;2023-03-23T01:49:42;99546.56;;;12.69;75.88
36248;BME280;22287;50.824;5.644;2023-03-23T01:52:26;99532.38;;;12.35;76.94
36248;BME280;22287;50.824;5.644;2023-03-23T01:54:57;99533.91;;;11.97;79.03
36248;BME280;22287;50.824;5.644;2023-03-23T01:57:25;99543.19;;;12.35;77.80
36248;BME280;22287;50.824;5.644;2023-03-23T01:59:57;99552.38;;;12.34;76.90
36248;BME280;22287;50.824;5.644;2023-03-23T02:02:50;99571.81;;;12.21;78.15
36248;BME280;22287;50.824;5.644;2023-03-23T02:05:40;99562.19;;;12.19;78.36
36248;BME280;22287;50.824;5.644;2023-03-23T02:08:15;99569.44;;;12.34;77.39
36248;BME280;22287;50.824;5.644;2023-03-23T02:10:41;99573.34;;;12.00;79.19
36248;BME280;22287;50.824;5.644;2023-03-23T02:13:09;99565.06;;;12.25;78.83
36248;BME280;22287;50.824;5.644;2023-03-23T02:15:47;99564.03;;;12.26;79.07
36248;BME280;22287;50.824;5.644;2023-03-23T02:29:01;99547.59;;;12.60;76.67
36248;BME280;22287;50.824;5.644;2023-03-23T02:31:45;99542.09;;;13.01;75.12
36248;BME280;22287;50.824;5.644;2023-03-23T02:34:34;99536.16;;;13.44;73.39
36248;BME280;22287;50.824;5.644;2023-03-23T02:40:01;99533.84;;;12.78;75.78
36248;BME280;22287;50.824;5.644;2023-03-23T02:42:34;99540.69;;;13.05;74.69
36248;BME280;22287;50.824;5.644;2023-03-23T02:45:03;99532.00;;;12.54;76.99
36248;BME280;22287;50.824;5.644;2023-03-23T02:47:31;99531.34;;;12.44;77.02
36248;BME280;22287;50.824;5.644;2023-03-23T02:49:59;99535.38;;;12.72;76.48
36248;BME280;22287;50.824;5.644;2023-03-23T02:52:29;99532.69;;;12.40;77.60
36248;BME280;22287;50.824;5.644;2023-03-23T02:54:57;99527.81;;;12.19;77.93
36248;BME280;22287;50.824;5.644;2023-03-23T02:57:26;99531.53;;;12.34;77.67
36248;BME280;22287;50.824;5.644;2023-03-23T02:59:54;99528.59;;;12.68;76.55
36248;BME280;22287;50.824;5.644;2023-03-23T03:02:34;99527.63;;;12.53;76.83
36248;BME280;22287;50.824;5.644;2023-03-23T03:07:49;99519.16;;;12.24;78.12
36248;BME280;22287;50.824;5.644;2023-03-23T03:10:26;99518.75;;;12.75;76.29
36248;BME280;22287;50.824;5.644;2023-03-23T03:13:11;99517.81;;;12.36;77.06
36248;BME280;22287;50.824;5.644;2023-03-23T03:16:10;99513.69;;;12.72;75.38
36248;BME280;22287;50.824;5.644;2023-03-23T03:19:00;99520.44;;;12.76;75.43
36248;BME280;22287;50.824;5.644;2023-03-23T03:21:28;99505.75;;;12.55;76.19
36248;BME280;22287;50.824;5.644;2023-03-23T03:24:00;99515.75;;;12.54;76.32
36248;BME280;22287;50.824;5.644;2023-03-23T03:26:29;99515.28;;;12.18;77.63
36248;BME280;22287;50.824;5.644;2023-03-23T03:29:05;99515.59;;;12.23;77.88
36248;BME280;22287;50.824;5.644;2023-03-23T03:31:39;99516.81;;;12.13;78.04
36248;BME280;22287;50.824;5.644;2023-03-23T03:34:06;99512.06;;;12.39;76.78
36248;BME280;22287;50.824;5.644;2023-03-23T03:36:36;99515.78;;;12.38;77.21
36248;BME280;22287;50.824;5.644;2023-03-23T03:39:09;99516.78;;;12.29;77.42
36248;BME280;22287;50.824;5.644;2023-03-23T03:41:37;99525.13;;;11.95;78.48
36248;BME280;22287;50.824;5.644;2023-03-23T03:44:04;99523.41;;;12.02;78.30
36248;BME280;22287;50.824;5.644;2023-03-23T03:46:31;99522.22;;;12.13;78.16
36248;BME280;22287;50.824;5.644;2023-03-23T03:48:59;99540.50;;;12.43;76.87
36248;BME280;22287;50.824;5.644;2023-03-23T03:51:26;99532.34;;;12.43;76.43
36248;BME280;22287;50.824;5.644;2023-03-23T03:53:54;99528.81;;;12.10;77.65
36248;BME280;22287;50.824;5.644;2023-03-23T03:56:20;99543.75;;;12.14;77.65
36248;BME280;22287;50.824;5.644;2023-03-23T03:58:57;99538.31;;;12.14;77.34
36248;BME280;22287;50.824;5.644;2023-03-23T04:01:40;99529.69;;;11.95;77.75
36248;BME280;22287;50.824;5.644;2023-03-23T04:04:07;99531.53;;;12.02;77.91
36248;BME280;22287;50.824;5.644;2023-03-23T04:06:35;99543.72;;;12.22;76.71
36248;BME280;22287;50.824;5.644;2023-03-23T04:09:04;99544.06;;;12.11;77.02
36248;BME280;22287;50.824;5.644;2023-03-23T04:11:35;99544.91;;;12.36;75.68
36248;BME280;22287;50.824;5.644;2023-03-23T04:14:19;99548.63;;;12.19;76.43
36248;BME280;22287;50.824;5.644;2023-03-23T04:16:47;99536.75;;;11.88;77.92
36248;BME280;22287;50.824;5.644;2023-03-23T04:19:13;99542.72;;;12.31;76.76
36248;BME280;22287;50.824;5.644;2023-03-23T04:21:39;99535.25;;;12.33;75.65
36248;BME280;22287;50.824;5.644;2023-03-23T04:24:06;99536.81;;;12.12;76.63
36248;BME280;22287;50.824;5.644;2023-03-23T04:26:32;99537.47;;;12.22;76.06
36248;BME280;22287;50.824;5.644;2023-03-23T04:29:05;99535.44;;;12.08;76.93
36248;BME280;22287;50.824;5.644;2023-03-23T04:31:31;99548.97;;;12.00;77.34
36248;BME280;22287;50.824;5.644;2023-03-23T04:34:16;99551.16;;;12.12;77.03
36248;BME280;22287;50.824;5.644;2023-03-23T04:36:50;99550.28;;;11.71;78.07
36248;BME280;22287;50.824;5.644;2023-03-23T04:39:21;99555.38;;;11.99;77.10
36248;BME280;22287;50.824;5.644;2023-03-23T04:41:47;99554.06;;;12.03;76.29
36248;BME280;22287;50.824;5.644;2023-03-23T04:44:21;99562.00;;;12.04;76.54
36248;BME280;22287;50.824;5.644;2023-03-23T04:46:56;99559.13;;;12.22;75.79
36248;BME280;22287;50.824;5.644;2023-03-23T04:49:22;99556.41;;;11.98;76.79
36248;BME280;22287;50.824;5.644;2023-03-23T04:51:54;99566.41;;;12.13;76.04
36248;BME280;22287;50.824;5.644;2023-03-23T04:54:42;99556.44;;;12.22;75.54
36248;BME280;22287;50.824;5.644;2023-03-23T04:57:08;99558.25;;;12.46;74.43
36248;BME280;22287;50.824;5.644;2023-03-23T04:59:38;99558.78;;;11.85;76.49
36248;BME280;22287;50.824;5.644;2023-03-23T05:02:11;99571.63;;;11.99;75.51
36248;BME280;22287;50.824;5.644;2023-03-23T05:04:40;99565.22;;;12.32;74.29
36248;BME280;22287;50.824;5.644;2023-03-23T05:07:13;99562.19;;;12.11;74.49
36248;BME280;22287;50.824;5.644;2023-03-23T05:09:47;99565.38;;;11.90;75.37
36248;BME280;22287;50.824;5.644;2023-03-23T05:12:15;99565.53;;;11.81;76.06
36248;BME280;22287;50.824;5.644;2023-03-23T05:15:00;99566.38;;;11.89;75.66
36248;BME280;22287;50.824;5.644;2023-03-23T05:17:29;99562.97;;;11.71;76.13
36248;BME280;22287;50.824;5.644;2023-03-23T05:19:58;99577.63;;;11.68;76.28
36248;BME280;22287;50.824;5.644;2023-03-23T05:22:51;99571.94;;;11.88;75.31
36248;BME280;22287;50.824;5.644;2023-03-23T05:25:23;99565.53;;;11.89;75.74
36248;BME280;22287;50.824;5.644;2023-03-23T05:27:57;99562.84;;;11.89;75.37
36248;BME280;22287;50.824;5.644;2023-03-23T05:30:42;99575.38;;;12.14;74.20
36248;BME280;22287;50.824;5.644;2023-03-23T05:33:11;99574.84;;;11.86;75.77
36248;BME280;22287;50.824;5.644;2023-03-23T05:36:03;99569.44;;;12.10;75.02
36248;BME280;22287;50.824;5.644;2023-03-23T05:38:39;99576.56;;;12.52;72.21
36248;BME280;22287;50.824;5.644;2023-03-23T05:41:09;99575.69;;;11.87;75.21
36248;BME280;22287;50.824;5.644;2023-03-23T05:43:41;99574.44;;;11.65;76.07
36248;BME280;22287;50.824;5.644;2023-03-23T05:46:13;99583.84;;;11.53;76.54
36248;BME280;22287;50.824;5.644;2023-03-23T05:48:39;99586.53;;;11.95;75.14
36248;BME280;22287;50.824;5.644;2023-03-23T05:51:10;99584.16;;;11.92;74.63
36248;BME280;22287;50.824;5.644;2023-03-23T05:53:39;99574.53;;;11.97;74.39
36248;BME280;22287;50.824;5.644;2023-03-23T05:56:05;99588.78;;;12.31;73.79
36248;BME280;22287;50.824;5.644;2023-03-23T05:58:54;99575.56;;;12.20;73.71
36248;BME280;22287;50.824;5.644;2023-03-23T06:01:22;99565.88;;;12.02;74.54
36248;BME280;22287;50.824;5.644;2023-03-23T06:03:50;99562.84;;;11.89;74.74
36248;BME280;22287;50.824;5.644;2023-03-23T06:06:23;99571.63;;;11.99;74.41
36248;BME280;22287;50.824;5.644;2023-03-23T06:08:56;99573.34;;;12.00;74.53
36248;BME280;22287;50.824;5.644;2023-03-23T06:11:42;99566.53;;;11.88;75.43
36248;BME280;22287;50.824;5.644;2023-03-23T06:14:27;99576.91;;;12.00;74.93
36248;BME280;22287;50.824;5.644;2023-03-23T06:16:53;99580.25;;;11.94;74.24
36248;BME280;22287;50.824;5.644;2023-03-23T06:19:19;99585.00;;;11.84;74.73
36248;BME280;22287;50.824;5.644;2023-03-23T06:21:56;99588.72;;;11.91;75.06
36248;BME280;22287;50.824;5.644;2023-03-23T06:24:43;99596.53;;;12.26;73.79
36248;BME280;22287;50.824;5.644;2023-03-23T06:27:12;99599.97;;;11.62;76.21
36248;BME280;22287;50.824;5.644;2023-03-23T06:29:41;99601.41;;;11.99;74.87
36248;BME280;22287;50.824;5.644;2023-03-23T06:32:10;99604.19;;;12.23;73.86
36248;BME280;22287;50.824;5.644;2023-03-23T06:34:37;99609.19;;;11.94;74.79
36248;BME280;22287;50.824;5.644;2023-03-23T06:37:23;99613.31;;;12.14;74.35
36248;BME280;22287;50.824;5.644;2023-03-23T06:40:05;99610.94;;;12.27;73.51
36248;BME280;22287;50.824;5.644;2023-03-23T06:42:37;99622.06;;;12.00;75.09
36248;BME280;22287;50.824;5.644;2023-03-23T06:45:21;99635.63;;;12.00;74.38
36248;BME280;22287;50.824;5.644;2023-03-23T06:47:51;99629.03;;;12.18;73.79
36248;BME280;22287;50.824;5.644;2023-03-23T06:50:17;99625.13;;;12.13;74.12
36248;BME280;22287;50.824;5.644;2023-03-23T06:52:47;99614.28;;;12.05;74.28
36248;BME280;22287;50.824;5.644;2023-03-23T06:55:14;99630.88;;;12.02;74.22
36248;BME280;22287;50.824;5.644;2023-03-23T06:57:40;99630.94;;;12.42;73.50
36248;BME280;22287;50.824;5.644;2023-03-23T07:00:08;99627.34;;;12.09;73.15
36248;BME280;22287;50.824;5.644;2023-03-23T07:02:36;99628.03;;;12.11;73.15
36248;BME280;22287;50.824;5.644;2023-03-23T07:05:02;99621.06;;;12.01;73.12
36248;BME280;22287;50.824;5.644;2023-03-23T07:07:29;99628.16;;;12.02;73.29
36248;BME280;22287;50.824;5.644;2023-03-23T07:10:11;99621.56;;;12.04;74.03
36248;BME280;22287;50.824;5.644;2023-03-23T07:12:38;99618.84;;;11.96;73.55
36248;BME280;22287;50.824;5.644;2023-03-23T07:15:06;99624.13;;;12.14;73.53
36248;BME280;22287;50.824;5.644;2023-03-23T07:17:35;99614.84;;;12.24;73.36
36248;BME280;22287;50.824;5.644;2023-03-23T07:20:23;99622.09;;;12.16;72.82
36248;BME280;22287;50.824;5.644;2023-03-23T07:22:49;99620.56;;;12.13;72.78
36248;BME280;22287;50.824;5.644;2023-03-23T07:25:25;99621.75;;;12.11;73.30
36248;BME280;22287;50.824;5.644;2023-03-23T07:27:53;99625.47;;;12.18;73.04
36248;BME280;22287;50.824;5.644;2023-03-23T07:30:20;99628.72;;;12.21;73.05
36248;BME280;22287;50.824;5.644;2023-03-23T07:32:45;99616.00;;;12.22;72.97
36248;BME280;22287;50.824;5.644;2023-03-23T07:35:11;99637.22;;;12.43;72.33
36248;BME280;22287;50.824;5.644;2023-03-23T07:37:48;99637.34;;;12.25;72.39
36248;BME280;22287;50.824;5.644;2023-03-23T07:40:16;99632.94;;;12.40;71.88
36248;BME280;22287;50.824;5.644;2023-03-23T07:42:51;99642.78;;;12.41;70.98
36248;BME280;22287;50.824;5.644;2023-03-23T07:45:26;99636.34;;;12.50;70.94
36248;BME280;22287;50.824;5.644;2023-03-23T07:47:52;99631.94;;;12.49;71.54
36248;BME280;22287;50.824;5.644;2023-03-23T07:50:19;99643.44;;;12.35;72.57
36248;BME280;22287;50.824;5.644;2023-03-23T07:52:54;99634.97;;;12.30;72.49
36248;BME280;22287;50.824;5.644;2023-03-23T07:55:20;99642.09;;;12.31;73.58
36248;BME280;22287;50.824;5.644;2023-03-23T07:58:02;99650.25;;;12.55;72.78
36248;BME280;22287;50.824;5.644;2023-03-23T08:00:28;99652.59;;;12.82;72.54
36248;BME280;22287;50.824;5.644;2023-03-23T08:02:57;99650.75;;;12.51;73.01
36248;BME280;22287;50.824;5.644;2023-03-23T08:05:28;99649.38;;;12.30;74.04
36248;BME280;22287;50.824;5.644;2023-03-23T08:08:29;99655.00;;;12.37;74.18
36248;BME280;22287;50.824;5.644;2023-03-23T08:11:11;99663.25;;;12.27;73.91
36248;BME280;22287;50.824;5.644;2023-03-23T08:14:01;99657.84;;;12.44;73.60
36248;BME280;22287;50.824;5.644;2023-03-23T08:16:46;99662.78;;;12.48;73.92
36248;BME280;22287;50.824;5.644;2023-03-23T08:19:33;99674.31;;;12.50;72.97
36248;BME280;22287;50.824;5.644;2023-03-23T08:22:20;99668.69;;;12.60;73.19
36248;BME280;22287;50.824;5.644;2023-03-23T08:25:08;99664.78;;;12.46;74.37
36248;BME280;22287;50.824;5.644;2023-03-23T08:27:59;99675.63;;;12.38;74.50
36248;BME280;22287;50.824;5.644;2023-03-23T08:30:52;99674.09;;;12.35;73.68
36248;BME280;22287;50.824;5.644;2023-03-23T08:33:30;99671.94;;;12.55;72.61
36248;BME280;22287;50.824;5.644;2023-03-23T08:36:13;99673.97;;;12.45;72.70
36248;BME280;22287;50.824;5.644;2023-03-23T08:38:39;99670.88;;;12.40;73.29
36248;BME280;22287;50.824;5.644;2023-03-23T08:41:09;99675.44;;;12.23;73.47
36248;BME280;22287;50.824;5.644;2023-03-23T08:43:48;99663.13;;;12.37;73.18
36248;BME280;22287;50.824;5.644;2023-03-23T08:46:32;99667.50;;;12.46;72.87
36248;BME280;22287;50.824;5.644;2023-03-23T08:49:27;99668.22;;;12.64;72.09
36248;BME280;22287;50.824;5.644;2023-03-23T08:52:32;99672.78;;;12.48;72.70
36248;BME280;22287;50.824;5.644;2023-03-23T08:55:17;99673.44;;;12.58;72.70
36248;BME280;22287;50.824;5.644;2023-03-23T08:58:13;99678.72;;;12.59;73.37
36248;BME280;22287;50.824;5.644;2023-03-23T09:00:57;99678.34;;;12.54;73.38
36248;BME280;22287;50.824;5.644;2023-03-23T09:03:38;99695.81;;;12.52;73.18
36248;BME280;22287;50.824;5.644;2023-03-23T09:06:31;99700.56;;;12.58;72.96
36248;BME280;22287;50.824;5.644;2023-03-23T09:08:59;99702.41;;;12.65;72.81
36248;BME280;22287;50.824;5.644;2023-03-23T09:11:26;99697.69;;;12.75;72.44
36248;BME280;22287;50.824;5.644;2023-03-23T09:13:51;99683.09;;;12.68;73.13
36248;BME280;22287;50.824;5.644;2023-03-23T09:16:18;99692.09;;;12.85;71.76
36248;BME280;22287;50.824;5.644;2023-03-23T09:18:44;99691.75;;;12.80;72.29
36248;BME280;22287;50.824;5.644;2023-03-23T09:21:10;99683.47;;;12.89;72.32
36248;BME280;22287;50.824;5.644;2023-03-23T09:23:36;99679.72;;;12.82;73.22
36248;BME280;22287;50.824;5.644;2023-03-23T09:26:03;99673.28;;;13.00;72.74
36248;BME280;22287;50.824;5.644;2023-03-23T09:28:28;99670.06;;;12.72;74.39
36248;BME280;22287;50.824;5.644;2023-03-23T09:30:55;99681.75;;;12.72;76.39
36248;BME280;22287;50.824;5.644;2023-03-23T09:33:25;99673.63;;;12.48;78.17
36248;BME280;22287;50.824;5.644;2023-03-23T09:35:51;99665.66;;;12.55;77.96
36248;BME280;22287;50.824;5.644;2023-03-23T09:38:17;99672.44;;;12.51;78.10
36248;BME280;22287;50.824;5.644;2023-03-23T09:40:47;99680.25;;;12.70;78.00
36248;BME280;22287;50.824;5.644;2023-03-23T09:46:30;99684.28;;;12.58;78.55
36248;BME280;22287;50.824;5.644;2023-03-23T09:54:37;99691.22;;;12.52;78.55
36248;BME280;22287;50.824;5.644;2023-03-23T09:57:10;99730.16;;;12.43;80.36
36248;BME280;22287;50.824;5.644;2023-03-23T10:02:27;99754.22;;;11.37;80.91
36248;BME280;22287;50.824;5.644;2023-03-23T10:04:57;99757.56;;;11.56;80.88
36248;BME280;22287;50.824;5.644;2023-03-23T10:07:28;99755.44;;;11.68;80.73
36248;BME280;22287;50.824;5.644;2023-03-23T10:09:57;99769.72;;;12.12;79.21
36248;BME280;22287;50.824;5.644;2023-03-23T10:12:36;99773.09;;;12.14;79.79
36248;BME280;22287;50.824;5.644;2023-03-23T10:15:23;99776.56;;;11.64;80.56
36248;BME280;22287;50.824;5.644;2023-03-23T10:18:01;99768.50;;;11.72;80.87
36248;BME280;22287;50.824;5.644;2023-03-23T10:23:44;99753.81;;;11.57;80.97
36248;BME280;22287;50.824;5.644;2023-03-23T10:28:43;99758.03;;;11.52;83.22
36248;BME280;22287;50.824;5.644;2023-03-23T10:31:33;99773.22;;;11.45;83.12
36248;BME280;22287;50.824;5.644;2023-03-23T10:34:08;99773.91;;;11.21;83.87
36248;BME280;22287;50.824;5.644;2023-03-23T10:36:37;99779.63;;;11.44;84.09
36248;BME280;22287;50.824;5.644;2023-03-23T10:39:13;99786.97;;;11.51;83.00
36248;BME280;22287;50.824;5.644;2023-03-23T10:41:40;99784.78;;;11.11;85.13
36248;BME280;22287;50.824;5.644;2023-03-23T10:44:24;99779.19;;;11.31;84.79
36248;BME280;22287;50.824;5.644;2023-03-23T10:47:00;99781.97;;;11.64;84.01
36248;BME280;22287;50.824;5.644;2023-03-23T10:49:37;99763.16;;;11.63;83.53
36248;BME280;22287;50.824;5.644;2023-03-23T10:55:03;99757.19;;;12.11;82.65
36248;BME280;22287;50.824;5.644;2023-03-23T10:57:31;99761.09;;;11.83;84.50
36248;BME280;22287;50.824;5.644;2023-03-23T11:02:41;99745.16;;;12.13;83.61
36248;BME280;22287;50.824;5.644;2023-03-23T11:05:19;99762.75;;;12.09;84.31
36248;BME280;22287;50.824;5.644;2023-03-23T11:07:54;99761.47;;;12.37;83.22
36248;BME280;22287;50.824;5.644;2023-03-23T11:10:26;99751.59;;;12.78;80.16
36248;BME280;22287;50.824;5.644;2023-03-23T11:12:57;99755.63;;;12.74;80.49
36248;BME280;22287;50.824;5.644;2023-03-23T11:17:55;99769.66;;;11.96;83.17
36248;BME280;22287;50.824;5.644;2023-03-23T11:20:22;99760.16;;;12.42;81.23
36248;BME280;22287;50.824;5.644;2023-03-23T11:22:48;99764.75;;;11.99;82.64
36248;BME280;22287;50.824;5.644;2023-03-23T11:25:14;99760.22;;;12.08;83.80
36248;BME280;22287;50.824;5.644;2023-03-23T11:27:40;99746.63;;;12.00;83.83
36248;BME280;22287;50.824;5.644;2023-03-23T11:30:18;99746.47;;;12.59;82.82
36248;BME280;22287;50.824;5.644;2023-03-23T11:32:45;99753.09;;;12.73;81.23
36248;BME280;22287;50.824;5.644;2023-03-23T11:35:18;99745.63;;;12.59;83.15
36248;BME280;22287;50.824;5.644;2023-03-23T11:37:49;99746.50;;;12.91;81.27
36248;BME280;22287;50.824;5.644;2023-03-23T11:40:20;99743.47;;;13.27;80.02
36248;BME280;22287;50.824;5.644;2023-03-23T11:45:34;99733.97;;;13.15;80.60
36248;BME280;22287;50.824;5.644;2023-03-23T11:50:53;99731.16;;;13.71;80.37
36248;BME280;22287;50.824;5.644;2023-03-23T11:58:23;99729.31;;;14.10;75.77
36248;BME280;22287;50.824;5.644;2023-03-23T12:01:05;99726.38;;;14.12;76.18
36248;BME280;22287;50.824;5.644;2023-03-23T12:06:36;99735.72;;;14.18;75.84
36248;BME280;22287;50.824;5.644;2023-03-23T12:09:15;99735.53;;;14.19;75.31
36248;BME280;22287;50.824;5.644;2023-03-23T12:14:26;99736.13;;;13.98;74.47
36248;BME280;22287;50.824;5.644;2023-03-23T12:17:24;99734.81;;;13.94;75.51
36248;BME280;22287;50.824;5.644;2023-03-23T12:25:55;99749.81;;;13.74;76.53
36248;BME280;22287;50.824;5.644;2023-03-23T12:28:37;99753.94;;;13.54;76.81
36248;BME280;22287;50.824;5.644;2023-03-23T12:31:18;99756.97;;;13.59;77.64
36248;BME280;22287;50.824;5.644;2023-03-23T12:36:37;99759.56;;;13.44;78.61
36248;BME280;22287;50.824;5.644;2023-03-23T12:39:43;99763.59;;;13.48;79.68
36248;BME280;22287;50.824;5.644;2023-03-23T12:50:41;99768.56;;;13.21;82.93
36248;BME280;22287;50.824;5.644;2023-03-23T12:53:13;99747.38;;;13.24;81.47
36248;BME280;22287;50.824;5.644;2023-03-23T12:55:50;99733.25;;;13.45;81.77
36248;BME280;22287;50.824;5.644;2023-03-23T12:58:25;99742.94;;;13.47;81.34
36248;BME280;22287;50.824;5.644;2023-03-23T13:01:09;99730.06;;;13.33;80.29
36248;BME280;22287;50.824;5.644;2023-03-23T13:03:48;99735.63;;;13.40;81.27
36248;BME280;22287;50.824;5.644;2023-03-23T13:11:35;99740.41;;;13.22;81.63
36248;BME280;22287;50.824;5.644;2023-03-23T13:22:42;99746.53;;;14.26;79.39
36248;BME280;22287;50.824;5.644;2023-03-23T13:25:17;99735.16;;;13.91;76.99
36248;BME280;22287;50.824;5.644;2023-03-23T13:27:59;99746.16;;;13.98;78.28
36248;BME280;22287;50.824;5.644;2023-03-23T13:30:27;99746.44;;;13.72;79.12
36248;BME280;22287;50.824;5.644;2023-03-23T13:33:05;99761.16;;;13.86;77.51
36248;BME280;22287;50.824;5.644;2023-03-23T13:35:36;99766.63;;;13.78;78.37
36248;BME280;22287;50.824;5.644;2023-03-23T13:38:33;99769.22;;;13.47;78.80
36248;BME280;22287;50.824;5.644;2023-03-23T13:41:09;99758.72;;;13.28;79.84
36248;BME280;22287;50.824;5.644;2023-03-23T13:43:37;99777.03;;;13.26;80.33
36248;BME280;22287;50.824;5.644;2023-03-23T13:48:43;99768.53;;;13.53;79.63
36248;BME280;22287;50.824;5.644;2023-03-23T13:51:34;99758.53;;;13.37;80.39
36248;BME280;22287;50.824;5.644;2023-03-23T13:56:55;99754.06;;;13.69;79.88
36248;BME280;22287;50.824;5.644;2023-03-23T14:01:54;99744.41;;;13.66;80.37
36248;BME280;22287;50.824;5.644;2023-03-23T14:04:22;99747.59;;;13.78;80.13
36248;BME280;22287;50.824;5.644;2023-03-23T14:06:51;99734.22;;;14.07;80.25
36248;BME280;22287;50.824;5.644;2023-03-23T14:11:59;99740.47;;;14.16;79.32
36248;BME280;22287;50.824;5.644;2023-03-23T14:14:33;99743.34;;;14.22;78.30
36248;BME280;22287;50.824;5.644;2023-03-23T14:19:38;99731.72;;;14.36;77.32
36248;BME280;22287;50.824;5.644;2023-03-23T14:22:04;99712.84;;;14.04;77.58
36248;BME280;22287;50.824;5.644;2023-03-23T14:24:38;99707.69;;;14.17;79.05
36248;BME280;22287;50.824;5.644;2023-03-23T14:29:30;99713.97;;;14.18;78.13
36248;BME280;22287;50.824;5.644;2023-03-23T14:31:58;99701.13;;;14.03;78.79
36248;BME280;22287;50.824;5.644;2023-03-23T14:34:26;99709.69;;;14.23;78.18
36248;BME280;22287;50.824;5.644;2023-03-23T14:36:54;99697.44;;;14.27;76.98
36248;BME280;22287;50.824;5.644;2023-03-23T14:39:32;99684.50;;;14.37;76.05
36248;BME280;22287;50.824;5.644;2023-03-23T14:42:04;99671.16;;;14.50;76.42
36248;BME280;22287;50.824;5.644;2023-03-23T14:44:34;99661.84;;;14.45;74.57
36248;BME280;22287;50.824;5.644;2023-03-23T14:47:09;99662.19;;;14.42;74.40
36248;BME280;22287;50.824;5.644;2023-03-23T14:49:41;99647.81;;;14.56;73.22
36248;BME280;22287;50.824;5.644;2023-03-23T14:52:13;99645.66;;;14.74;73.88
36248;BME280;22287;50.824;5.644;2023-03-23T14:54:40;99652.66;;;14.91;73.29
36248;BME280;22287;50.824;5.644;2023-03-23T14:57:17;99651.38;;;14.79;72.66
36248;BME280;22287;50.824;5.644;2023-03-23T14:59:46;99648.03;;;14.54;72.04
36248;BME280;22287;50.824;5.644;2023-03-23T15:02:33;99659.47;;;14.42;72.42
36248;BME280;22287;50.824;5.644;2023-03-23T15:05:10;99664.41;;;14.69;71.46
36248;BME280;22287;50.824;5.644;2023-03-23T15:07:39;99665.94;;;14.86;70.75
36248;BME280;22287;50.824;5.644;2023-03-23T15:10:08;99660.84;;;14.83;71.14
36248;BME280;22287;50.824;5.644;2023-03-23T15:12:36;99658.25;;;14.90;70.55
36248;BME280;22287;50.824;5.644;2023-03-23T15:15:07;99664.97;;;14.79;68.76
36248;BME280;22287;50.824;5.644;2023-03-23T15:17:45;99656.47;;;14.59;68.38